createdAt,value
2019-04-23T00:03:49.977Z,41.40
2019-04-23T00:06:32.256Z,41.60
2019-04-23T00:08:57.853Z,41.60
2019-04-23T00:11:20.533Z,41.70
2019-04-23T00:13:59.434Z,41.70
2019-04-23T00:16:24.797Z,41.70
2019-04-23T00:19:02.443Z,41.70
2019-04-23T00:21:52.148Z,41.80
2019-04-23T00:25:12.119Z,41.90
2019-04-23T00:29:53.379Z,42.10
2019-04-23T00:32:23.940Z,42.20
2019-04-23T00:35:00.702Z,42.20
2019-04-23T00:37:27.249Z,42.20
2019-04-23T00:42:20.224Z,42.20
2019-04-23T00:44:54.302Z,42.20
2019-04-23T00:47:25.750Z,42.30
2019-04-23T00:50:00.308Z,42.30
2019-04-23T00:54:59.361Z,42.40
2019-04-23T00:57:29.320Z,42.50
2019-04-23T01:02:26.418Z,42.60
2019-04-23T01:05:01.298Z,42.60
2019-04-23T01:07:25.104Z,42.70
2019-04-23T01:10:08.289Z,42.80
2019-04-23T01:12:46.390Z,42.90
2019-04-23T01:15:18.843Z,42.90
2019-04-23T01:17:46.852Z,43.00
2019-04-23T01:20:22.101Z,43.00
2019-04-23T01:22:38.035Z,43.10
2019-04-23T01:25:21.221Z,43.20
2019-04-23T01:28:13.864Z,43.20
2019-04-23T01:30:47.231Z,43.20
2019-04-23T01:33:21.680Z,43.30
2019-04-23T01:36:01.005Z,43.40
2019-04-23T01:38:21.803Z,43.40
2019-04-23T01:40:47.431Z,43.40
2019-04-23T01:43:38.164Z,43.50
2019-04-23T01:45:48.130Z,43.40
2019-04-23T01:48:17.834Z,43.50
2019-04-23T01:50:55.018Z,43.40
2019-04-23T01:53:27.321Z,43.50
2019-04-23T01:58:40.300Z,43.40
2019-04-23T02:00:54.505Z,43.50
2019-04-23T02:03:32.556Z,43.60
2019-04-23T02:08:26.160Z,43.40
2019-04-23T02:13:33.944Z,43.80
2019-04-23T02:15:59.864Z,43.80
2019-04-23T02:18:32.202Z,43.90
2019-04-23T02:21:07.492Z,43.90
2019-04-23T02:23:44.390Z,43.90
2019-04-23T02:26:12.961Z,43.90
2019-04-23T02:31:47.128Z,44.00
2019-04-23T02:34:07.286Z,44.10
2019-04-23T02:36:22.756Z,44.20
2019-04-23T02:38:56.285Z,44.10
2019-04-23T02:41:29.619Z,44.20
2019-04-23T02:44:06.976Z,44.20
2019-04-23T02:46:17.690Z,44.30
2019-04-23T02:54:16.120Z,44.40
2019-04-23T03:06:38.989Z,44.60
2019-04-23T03:09:05.062Z,44.60
2019-04-23T03:14:12.078Z,44.70
2019-04-23T03:16:54.997Z,44.80
2019-04-23T03:19:31.928Z,44.80
2019-04-23T03:25:03.416Z,44.70
2019-04-23T03:27:29.231Z,44.90
2019-04-23T03:42:35.151Z,45.20
2019-04-23T03:50:09.235Z,45.80
2019-04-23T03:52:36.982Z,45.40
2019-04-23T03:55:06.046Z,45.40
2019-04-23T03:57:30.699Z,45.40
2019-04-23T04:05:00.693Z,45.50
2019-04-23T04:10:05.405Z,45.60
2019-04-23T04:12:39.119Z,45.50
2019-04-23T04:15:18.880Z,45.50
2019-04-23T04:17:55.648Z,45.50
2019-04-23T04:20:15.275Z,45.50
2019-04-23T04:22:52.176Z,46.10
2019-04-23T04:25:15.842Z,45.60
2019-04-23T04:27:55.550Z,45.50
2019-04-23T04:32:56.741Z,45.80
2019-04-23T04:43:00.199Z,45.90
2019-04-23T04:45:30.480Z,45.80
2019-04-23T04:47:44.916Z,45.80
2019-04-23T04:50:19.412Z,45.70
2019-04-23T04:53:04.533Z,45.70
2019-04-23T04:55:21.526Z,46.20
2019-04-23T04:57:52.703Z,45.90
2019-04-23T05:00:34.709Z,46.00
2019-04-23T05:03:22.218Z,46.00
2019-04-23T05:05:58.331Z,46.00
2019-04-23T05:07:56.303Z,46.00
2019-04-23T05:10:38.643Z,46.10
2019-04-23T05:13:11.991Z,46.20
2019-04-23T05:15:25.482Z,46.20
2019-04-23T05:20:53.442Z,46.10
2019-04-23T05:23:19.274Z,45.90
2019-04-23T05:25:46.387Z,45.90
2019-04-23T05:30:51.530Z,45.90
2019-04-23T05:33:22.368Z,46.00
2019-04-23T05:38:38.007Z,46.00
2019-04-23T05:40:55.825Z,45.90
2019-04-23T05:43:19.233Z,46.00
2019-04-23T05:45:46.767Z,46.00
2019-04-23T05:50:59.112Z,46.10
2019-04-23T05:53:27.243Z,46.10
2019-04-23T05:55:57.076Z,46.20
2019-04-23T05:58:30.059Z,46.30
2019-04-23T06:14:37.245Z,46.20
2019-04-23T06:16:49.893Z,46.20
2019-04-23T06:19:16.886Z,46.10
2019-04-23T06:26:54.271Z,46.00
2019-04-23T06:29:25.498Z,46.00
2019-04-23T06:31:55.255Z,45.90
2019-04-23T06:34:23.398Z,46.00
2019-04-23T06:36:53.728Z,45.90
2019-04-23T06:39:26.031Z,45.90
2019-04-23T06:41:59.205Z,46.00
2019-04-23T06:52:10.477Z,45.90
2019-04-23T06:54:42.446Z,45.90
2019-04-23T06:57:20.158Z,45.90
2019-04-23T06:59:32.310Z,45.90
2019-04-23T07:02:11.807Z,45.80
2019-04-23T07:04:41.047Z,45.80
2019-04-23T07:07:31.119Z,45.80
2019-04-23T07:09:37.169Z,45.70
2019-04-23T07:12:08.556Z,45.80
2019-04-23T07:14:44.797Z,45.70
2019-04-23T07:17:18.287Z,45.80
2019-04-23T07:19:42.330Z,45.70
2019-04-23T07:25:03.121Z,45.80
2019-04-23T07:27:14.388Z,45.70
2019-04-23T07:32:20.847Z,45.60
2019-04-23T07:34:57.399Z,45.60
2019-04-23T07:37:20.911Z,45.50
2019-04-23T07:40:24.168Z,45.60
2019-04-23T07:42:52.724Z,45.50
2019-04-23T07:45:25.195Z,45.20
2019-04-23T07:48:16.400Z,45.50
2019-04-23T07:53:18.883Z,45.40
2019-04-23T07:55:51.932Z,45.30
2019-04-23T08:05:42.562Z,45.40
2019-04-23T08:08:21.460Z,45.40
2019-04-23T08:16:23.300Z,45.40
2019-04-23T08:18:49.283Z,45.20
2019-04-23T08:21:16.216Z,45.30
2019-04-23T08:27:04.220Z,45.20
2019-04-23T08:29:38.466Z,45.10
2019-04-23T08:34:44.889Z,45.00
2019-04-23T08:37:15.287Z,45.10
2019-04-23T08:39:43.410Z,45.00
2019-04-23T08:48:07.857Z,44.70
2019-04-23T08:50:32.694Z,44.70
2019-04-23T08:53:17.658Z,44.70
2019-04-23T08:55:41.901Z,44.60
2019-04-23T08:58:06.105Z,44.70
2019-04-23T09:00:45.576Z,44.80
2019-04-23T09:03:16.809Z,44.60
2019-04-23T09:05:48.318Z,44.50
2019-04-23T09:08:17.245Z,44.50
2019-04-23T09:13:43.760Z,44.30
2019-04-23T09:15:51.785Z,44.30
2019-04-23T09:18:15.875Z,44.30
2019-04-23T09:20:37.466Z,44.10
2019-04-23T09:23:24.805Z,44.10
2019-04-23T09:25:49.853Z,44.00
2019-04-23T09:28:28.029Z,43.90
2019-04-23T09:33:46.684Z,43.70
2019-04-23T09:36:33.672Z,43.70
2019-04-23T09:39:27.343Z,43.60
2019-04-23T09:42:19.418Z,43.60
2019-04-23T09:44:58.182Z,43.60
2019-04-23T09:47:48.902Z,43.40
2019-04-23T09:50:17.211Z,43.40
2019-04-23T09:55:24.603Z,43.10
2019-04-23T09:57:52.266Z,43.20
2019-04-23T10:00:25.692Z,43.20
2019-04-23T10:02:34.039Z,43.00
2019-04-23T10:05:04.517Z,42.90
2019-04-23T10:07:34.856Z,42.90
2019-04-23T10:09:53.546Z,42.90
2019-04-23T10:12:24.130Z,42.70
2019-04-23T10:15:02.298Z,42.60
2019-04-23T10:17:26.164Z,42.50
2019-04-23T10:19:55.210Z,42.00
2019-04-23T10:22:25.141Z,42.00
2019-04-23T10:24:55.271Z,42.70
2019-04-23T10:27:25.246Z,42.10
2019-04-23T10:29:56.064Z,42.20
2019-04-23T10:32:27.241Z,41.80
2019-04-23T10:35:10.299Z,42.30
2019-04-23T10:37:39.413Z,42.20
2019-04-23T10:40:00.951Z,42.20
2019-04-23T10:42:32.038Z,42.10
2019-04-23T10:45:30.412Z,42.00
2019-04-23T10:48:49.634Z,42.00
2019-04-23T10:51:28.634Z,41.80
2019-04-23T10:54:17.857Z,41.70
2019-04-23T10:56:40.795Z,41.60
2019-04-23T10:59:10.398Z,41.60
2019-04-23T11:01:45.569Z,41.50
2019-04-23T11:04:38.775Z,41.40
2019-04-23T11:06:45.393Z,41.30
2019-04-23T11:09:33.013Z,41.30
2019-04-23T11:12:02.189Z,41.30
2019-04-23T11:14:31.019Z,41.10
2019-04-23T11:19:32.390Z,41.00
2019-04-23T11:22:07.969Z,41.00
2019-04-23T11:24:36.232Z,41.00
2019-04-23T11:26:55.746Z,40.90
2019-04-23T11:29:34.356Z,40.90
2019-04-23T11:32:07.941Z,40.80
2019-04-23T11:37:03.753Z,40.80
2019-04-23T11:38:02.678Z,40.70
2019-04-23T11:39:37.782Z,40.60
2019-04-23T11:42:14.743Z,40.40
2019-04-23T11:47:25.496Z,40.30
2019-04-23T11:57:32.560Z,40.00
2019-04-23T12:02:43.238Z,39.90
2019-04-23T12:05:34.890Z,40.00
2019-04-23T12:08:26.808Z,40.00
2019-04-23T12:11:27.206Z,40.00
2019-04-23T12:16:00.649Z,39.90
2019-04-23T12:19:04.644Z,39.80
2019-04-23T12:21:28.265Z,39.50
2019-04-23T12:26:44.360Z,39.50
2019-04-23T12:28:57.593Z,39.50
2019-04-23T12:31:32.584Z,39.50
2019-04-23T12:34:05.202Z,39.40
2019-04-23T12:39:20.925Z,39.40
2019-04-23T12:41:52.774Z,39.50
2019-04-23T12:44:14.926Z,39.20
2019-04-23T12:49:40.343Z,39.20
2019-04-23T12:51:56.090Z,39.20
2019-04-23T12:54:31.891Z,39.10
2019-04-23T12:59:22.837Z,38.90
2019-04-23T13:01:57.415Z,38.90
2019-04-23T13:04:26.122Z,39.00
2019-04-23T13:06:50.978Z,39.00
2019-04-23T13:11:57.997Z,38.70
2019-04-23T13:14:34.778Z,38.70
2019-04-23T13:17:22.295Z,38.70
2019-04-23T13:19:39.461Z,38.80
2019-04-23T13:22:08.159Z,38.70
2019-04-23T13:24:48.977Z,38.80
2019-04-23T13:27:32.200Z,38.80
2019-04-23T13:30:14.080Z,38.60
2019-04-23T13:32:46.403Z,38.50
2019-04-23T13:34:58.529Z,38.40
2019-04-23T13:37:29.430Z,38.40
2019-04-23T13:39:54.952Z,38.30
2019-04-23T13:44:55.861Z,38.30
2019-04-23T13:47:40.008Z,38.10
2019-04-23T13:49:57.206Z,38.10
2019-04-23T13:58:07.495Z,37.70
2019-04-23T14:00:15.435Z,37.90
2019-04-23T14:02:37.411Z,37.90
2019-04-23T14:05:22.049Z,37.90
2019-04-23T14:07:56.511Z,37.80
2019-04-23T14:10:29.218Z,38.30
2019-04-23T14:13:08.405Z,37.70
2019-04-23T14:15:34.190Z,37.60
2019-04-23T14:20:27.711Z,37.70
2019-04-23T14:25:33.886Z,37.70
2019-04-23T14:28:19.347Z,37.80
2019-04-23T14:33:12.032Z,37.60
2019-04-23T14:35:32.492Z,37.60
2019-04-23T14:40:45.822Z,37.60
2019-04-23T14:46:13.663Z,37.60
2019-04-23T14:48:33.032Z,37.60
2019-04-23T14:50:50.588Z,37.60
2019-04-23T14:53:26.884Z,37.60
2019-04-23T14:58:58.224Z,37.60
2019-04-23T15:01:27.419Z,37.60
2019-04-23T15:09:02.212Z,37.70
2019-04-23T15:11:26.444Z,37.80
2019-04-23T15:13:53.947Z,37.80
2019-04-23T15:19:42.676Z,37.90
2019-04-23T15:22:07.819Z,37.90
2019-04-23T15:24:52.418Z,38.60
2019-04-23T15:29:26.803Z,38.00
2019-04-23T15:32:13.804Z,38.00
2019-04-23T15:34:57.308Z,38.00
2019-04-23T15:44:41.918Z,38.30
2019-04-23T15:47:19.317Z,38.40
2019-04-23T15:49:55.499Z,38.40
2019-04-23T15:52:39.773Z,38.50
2019-04-23T15:54:51.468Z,38.50
2019-04-23T15:57:18.152Z,38.60
2019-04-23T15:59:49.191Z,38.70
2019-04-23T16:01:51.189Z,38.90
2019-04-23T16:04:20.781Z,38.90
2019-04-23T16:06:51.721Z,38.90
2019-04-23T16:10:03.192Z,39.00
2019-04-23T16:12:16.834Z,39.10
2019-04-23T16:15:06.595Z,39.20
2019-04-23T16:22:30.422Z,39.10
2019-04-23T16:25:06.821Z,39.10
2019-04-23T16:27:31.940Z,39.10
2019-04-23T16:35:51.584Z,39.30
2019-04-23T16:38:26.732Z,39.30
2019-04-23T16:48:33.223Z,39.50
2019-04-23T16:51:06.696Z,39.50
2019-04-23T16:53:21.631Z,39.50
2019-04-23T16:55:55.354Z,39.40
2019-04-23T16:58:25.235Z,39.40
2019-04-23T17:01:00.481Z,39.50
2019-04-23T17:03:28.273Z,39.50
2019-04-23T17:05:59.512Z,39.50
2019-04-23T17:13:30.911Z,39.60
2019-04-23T17:18:32.015Z,39.60
2019-04-23T17:20:58.299Z,40.30
2019-04-23T17:23:40.177Z,39.70
2019-04-23T17:26:04.287Z,39.80
2019-04-23T17:28:31.490Z,39.90
2019-04-23T17:31:27.909Z,39.90
2019-04-23T17:33:43.497Z,39.90
2019-04-23T17:39:22.094Z,40.00
2019-04-23T17:42:01.383Z,40.10
2019-04-23T17:44:25.689Z,40.10
2019-04-23T17:46:50.424Z,40.20
2019-04-23T17:49:35.163Z,40.20
2019-04-23T17:51:50.969Z,40.30
2019-04-23T17:54:26.886Z,40.30
2019-04-23T17:59:51.768Z,40.50
2019-04-23T18:04:56.391Z,40.60
2019-04-23T18:07:26.466Z,40.50
2019-04-23T18:09:48.466Z,40.60
2019-04-23T18:12:25.463Z,40.70
2019-04-23T18:14:45.047Z,40.80
2019-04-23T18:17:24.295Z,40.80
2019-04-23T18:20:13.364Z,40.90
2019-04-23T18:25:26.159Z,41.10
2019-04-23T18:27:55.800Z,41.20
2019-04-23T18:30:49.571Z,41.20
2019-04-23T18:33:58.196Z,41.20
2019-04-23T18:35:56.687Z,41.30
2019-04-23T18:38:39.992Z,41.40
2019-04-23T18:41:08.374Z,41.50
2019-04-23T18:43:32.853Z,41.60
2019-04-23T18:46:06.917Z,41.60
2019-04-23T18:48:43.922Z,41.50
2019-04-23T18:56:12.002Z,41.40
2019-04-23T18:58:54.610Z,41.40
2019-04-23T19:01:10.707Z,41.50
2019-04-23T19:06:40.850Z,42.00
2019-04-23T19:10:10.777Z,42.10
2019-04-23T19:12:41.422Z,42.20
2019-04-23T19:17:53.279Z,42.30
2019-04-23T19:22:53.373Z,42.50
2019-04-23T19:25:20.833Z,42.60
2019-04-23T19:27:47.165Z,42.70
2019-04-23T19:30:31.303Z,42.80
2019-04-23T19:33:07.477Z,42.80
2019-04-23T19:35:58.635Z,42.80
2019-04-23T19:38:13.266Z,42.90
2019-04-23T19:40:46.302Z,42.90
2019-04-23T19:43:21.789Z,43.00
2019-04-23T19:45:49.722Z,43.10
2019-04-23T19:48:19.269Z,43.20
2019-04-23T19:55:58.667Z,43.20
2019-04-23T19:58:27.400Z,43.30
2019-04-23T20:06:06.331Z,43.50
2019-04-23T20:08:34.305Z,43.50
2019-04-23T20:10:54.625Z,43.50
2019-04-23T20:13:33.179Z,43.70
2019-04-23T20:18:42.759Z,43.80
2019-04-23T20:23:43.238Z,43.90
2019-04-23T20:32:27.338Z,44.30
2019-04-23T20:34:18.913Z,44.30
2019-04-23T20:39:13.511Z,44.50
2019-04-23T20:42:03.331Z,45.10
2019-04-23T20:44:28.292Z,44.80
2019-04-23T20:46:54.537Z,44.70
2019-04-23T20:49:18.241Z,44.60
2019-04-23T20:52:00.697Z,44.70
2019-04-23T20:54:33.088Z,44.90
2019-04-23T20:57:12.636Z,44.90
2019-04-23T20:59:51.559Z,45.00
2019-04-23T21:02:39.712Z,45.00
2019-04-23T21:05:06.189Z,45.10
2019-04-23T21:07:41.995Z,45.10
2019-04-23T21:10:18.082Z,45.20
2019-04-23T21:12:50.713Z,45.30
2019-04-23T21:15:24.147Z,45.40
2019-04-23T21:17:46.820Z,45.50
2019-04-23T21:23:01.183Z,45.80
2019-04-23T21:25:01.795Z,45.70
2019-04-23T21:30:53.691Z,45.70
2019-04-23T21:33:07.213Z,45.60
2019-04-23T21:36:04.999Z,45.70
2019-04-23T21:38:38.669Z,45.80
2019-04-23T21:43:57.187Z,46.00
2019-04-23T21:46:17.078Z,46.10
2019-04-23T21:48:55.868Z,46.10
2019-04-23T21:51:24.459Z,46.20
2019-04-23T21:53:42.252Z,46.20
2019-04-23T21:58:53.410Z,46.30
2019-04-23T22:01:21.389Z,46.40
2019-04-23T22:04:02.814Z,46.40
2019-04-23T22:06:22.248Z,46.50
2019-04-23T22:08:52.444Z,46.60
2019-04-23T22:11:42.869Z,46.80
2019-04-23T22:16:23.455Z,46.80
2019-04-23T22:19:05.413Z,46.90
2019-04-23T22:26:28.982Z,47.20
2019-04-23T22:29:05.544Z,47.20
2019-04-23T22:34:09.019Z,47.30
2019-04-23T22:36:28.607Z,47.40
2019-04-23T22:39:03.258Z,47.60
2019-04-23T22:41:37.148Z,47.50
2019-04-23T22:46:50.095Z,47.90
2019-04-23T22:49:23.063Z,47.80
2019-04-23T22:51:46.339Z,47.80
2019-04-23T22:54:12.183Z,47.80
2019-04-23T22:56:53.633Z,47.90
2019-04-23T23:04:24.213Z,47.90
2019-04-23T23:11:55.555Z,48.30
2019-04-23T23:14:23.856Z,48.40
2019-04-23T23:19:28.502Z,48.30
2019-04-23T23:22:03.393Z,48.50
2019-04-23T23:24:33.714Z,48.70
2019-04-23T23:29:27.706Z,48.80
2019-04-23T23:32:02.177Z,48.90
2019-04-23T23:34:36.409Z,48.90
2019-04-23T23:37:09.022Z,48.80
2019-04-23T23:39:45.621Z,49.00
2019-04-23T23:42:02.553Z,48.70
2019-04-23T23:44:50.984Z,49.70
2019-04-23T23:47:12.686Z,49.20
2019-04-23T23:52:13.090Z,49.20
2019-04-23T23:54:36.062Z,49.20
2019-04-23T23:57:12.075Z,49.30
